createdAt,value
2019-06-10T00:00:23.551Z,50.37
2019-06-10T00:02:57.698Z,50.40
2019-06-10T00:05:31.763Z,50.68
2019-06-10T00:08:07.479Z,50.61
2019-06-10T00:10:42.720Z,50.83
2019-06-10T00:13:16.423Z,51.03
2019-06-10T00:15:51.592Z,51.13
2019-06-10T00:18:38.445Z,51.29
2019-06-10T00:21:04.013Z,51.46
2019-06-10T00:23:41.212Z,51.85
2019-06-10T00:26:15.899Z,51.42
2019-06-10T00:28:51.329Z,52.02
2019-06-10T00:31:26.278Z,52.00
2019-06-10T00:34:02.913Z,52.51
2019-06-10T00:36:35.522Z,53.08
2019-06-10T00:39:13.446Z,52.01
2019-06-10T00:41:46.501Z,51.74
2019-06-10T00:44:23.951Z,51.81
2019-06-10T00:47:04.879Z,51.66
2019-06-10T00:49:41.527Z,51.59
2019-06-10T00:52:15.565Z,51.40
2019-06-10T00:54:51.882Z,51.82
2019-06-10T00:57:26.883Z,51.36
2019-06-10T01:00:12.077Z,51.83
2019-06-10T01:02:37.193Z,51.47
2019-06-10T01:05:12.468Z,51.68
2019-06-10T01:07:50.651Z,51.68
2019-06-10T01:10:23.741Z,51.76
2019-06-10T01:12:57.872Z,51.72
2019-06-10T01:15:31.691Z,51.91
2019-06-10T01:18:08.659Z,51.88
2019-06-10T01:20:43.439Z,51.98
2019-06-10T01:23:17.629Z,52.13
2019-06-10T01:25:52.885Z,52.45
2019-06-10T01:28:33.935Z,52.61
2019-06-10T01:31:10.950Z,52.51
2019-06-10T01:33:43.526Z,52.64
2019-06-10T01:36:21.035Z,52.50
2019-06-10T01:38:56.850Z,52.74
2019-06-10T01:41:30.729Z,52.92
2019-06-10T01:44:06.462Z,53.26
2019-06-10T01:46:41.024Z,53.03
2019-06-10T01:49:16.464Z,53.29
2019-06-10T01:51:51.628Z,53.46
2019-06-10T01:54:25.457Z,53.67
2019-06-10T01:57:01.341Z,53.02
2019-06-10T01:59:35.605Z,53.16
2019-06-10T02:02:17.272Z,53.20
2019-06-10T02:04:51.855Z,53.88
2019-06-10T02:07:25.879Z,53.68
2019-06-10T02:10:01.201Z,53.45
2019-06-10T02:12:35.252Z,53.52
2019-06-10T02:15:12.128Z,53.93
2019-06-10T02:17:45.275Z,53.59
2019-06-10T02:20:22.603Z,53.39
2019-06-10T02:22:54.676Z,53.35
2019-06-10T02:25:30.464Z,53.47
2019-06-10T02:28:03.818Z,53.93
2019-06-10T02:30:49.096Z,53.88
2019-06-10T02:33:17.369Z,54.46
2019-06-10T02:35:53.585Z,54.67
2019-06-10T02:38:33.988Z,54.48
2019-06-10T02:41:04.321Z,55.12
2019-06-10T02:43:39.163Z,55.23
2019-06-10T02:46:15.483Z,55.84
2019-06-10T02:48:48.846Z,55.39
2019-06-10T02:51:30.623Z,55.48
2019-06-10T02:53:59.547Z,55.82
2019-06-10T02:56:36.271Z,56.34
2019-06-10T02:59:08.743Z,56.13
2019-06-10T03:01:44.143Z,56.76
2019-06-10T03:04:20.667Z,56.64
2019-06-10T03:06:54.587Z,56.00
2019-06-10T03:09:31.910Z,55.78
2019-06-10T03:12:04.562Z,55.59
2019-06-10T03:14:42.252Z,55.59
2019-06-10T03:17:19.844Z,56.11
2019-06-10T03:19:56.175Z,55.89
2019-06-10T03:22:29.871Z,56.70
2019-06-10T03:25:03.530Z,56.42
2019-06-10T03:27:37.275Z,56.76
2019-06-10T03:30:16.961Z,57.04
2019-06-10T03:32:47.511Z,57.34
2019-06-10T03:35:23.938Z,57.00
2019-06-10T03:37:57.231Z,57.30
2019-06-10T03:40:32.813Z,57.51
2019-06-10T03:43:07.046Z,56.97
2019-06-10T03:45:42.618Z,56.89
2019-06-10T03:48:26.733Z,57.16
2019-06-10T03:51:00.087Z,57.33
2019-06-10T03:53:34.284Z,57.62
2019-06-10T03:56:07.917Z,57.15
2019-06-10T03:58:43.359Z,56.89
2019-06-10T04:01:17.461Z,57.63
2019-06-10T04:03:52.978Z,58.11
2019-06-10T04:06:27.694Z,57.94
2019-06-10T04:09:02.793Z,57.78
2019-06-10T04:11:38.757Z,57.02
2019-06-10T04:14:12.977Z,56.80
2019-06-10T04:16:46.950Z,56.42
2019-06-10T04:19:24.254Z,55.98
2019-06-10T04:21:58.171Z,56.24
2019-06-10T04:24:33.263Z,56.07
2019-06-10T04:27:07.057Z,56.25
2019-06-10T04:29:42.210Z,56.50
2019-06-10T04:32:16.749Z,56.69
2019-06-10T04:34:52.979Z,57.13
2019-06-10T04:37:29.511Z,56.98
2019-06-10T04:40:03.421Z,57.13
2019-06-10T04:42:38.463Z,56.86
2019-06-10T04:45:14.114Z,57.38
2019-06-10T04:47:52.543Z,57.83
2019-06-10T04:50:39.118Z,58.91
2019-06-10T04:53:03.521Z,59.88
2019-06-10T04:55:37.829Z,60.31
2019-06-10T04:58:13.568Z,60.66
2019-06-10T05:00:47.491Z,61.06
2019-06-10T05:03:23.537Z,61.97
2019-06-10T05:05:56.584Z,62.43
2019-06-10T05:08:33.596Z,61.32
2019-06-10T05:11:07.434Z,61.93
2019-06-10T05:13:43.020Z,60.93
2019-06-10T05:16:17.793Z,60.63
2019-06-10T05:18:54.940Z,59.95
2019-06-10T05:21:29.758Z,59.89
2019-06-10T05:24:04.255Z,60.50
2019-06-10T05:26:37.969Z,60.21
2019-06-10T05:29:12.205Z,60.11
2019-06-10T05:31:46.048Z,59.57
2019-06-10T05:34:20.422Z,59.61
2019-06-10T05:36:54.274Z,59.72
2019-06-10T05:39:30.386Z,59.68
2019-06-10T05:42:04.893Z,59.78
2019-06-10T05:44:42.928Z,60.24
2019-06-10T05:47:16.439Z,59.98
2019-06-10T05:49:52.932Z,60.36
2019-06-10T05:52:29.060Z,60.18
2019-06-10T05:55:03.061Z,59.35
2019-06-10T05:57:37.013Z,60.01
2019-06-10T06:00:14.980Z,60.02
2019-06-10T06:02:52.107Z,57.76
2019-06-10T06:05:26.578Z,53.44
2019-06-10T06:08:05.590Z,52.85
2019-06-10T06:10:37.836Z,53.95
2019-06-10T06:13:12.707Z,52.05
2019-06-10T06:15:46.556Z,50.17
2019-06-10T06:18:22.453Z,47.65
2019-06-10T06:20:55.861Z,45.91
2019-06-10T06:23:33.358Z,42.87
2019-06-10T06:26:08.506Z,39.93
2019-06-10T06:28:43.002Z,41.27
2019-06-10T06:31:17.147Z,45.13
2019-06-10T06:33:52.687Z,44.36
2019-06-10T06:36:28.668Z,42.70
2019-06-10T06:39:02.455Z,41.10
2019-06-10T06:41:37.579Z,40.09
2019-06-10T06:44:12.934Z,39.18
2019-06-10T06:46:47.188Z,38.80
2019-06-10T06:49:22.967Z,37.95
2019-06-10T06:51:59.269Z,39.55
2019-06-10T06:54:36.072Z,39.44
2019-06-10T06:57:12.914Z,36.96
2019-06-10T06:59:46.361Z,38.00
2019-06-10T07:02:22.691Z,38.04
2019-06-10T07:04:56.743Z,37.10
2019-06-10T07:07:35.666Z,35.11
2019-06-10T07:10:09.430Z,37.30
2019-06-10T07:12:44.974Z,38.07
2019-06-10T07:15:22.474Z,42.63
2019-06-10T07:17:56.211Z,39.80
2019-06-10T07:20:32.688Z,38.53
2019-06-10T07:23:07.582Z,37.83
2019-06-10T07:25:46.540Z,39.53
2019-06-10T07:28:17.063Z,40.38
2019-06-10T07:30:52.684Z,40.31
2019-06-10T07:33:26.173Z,38.78
2019-06-10T07:36:02.943Z,37.65
2019-06-10T07:38:40.739Z,39.18
2019-06-10T07:41:13.424Z,41.52
2019-06-10T07:44:03.218Z,42.00
2019-06-10T07:46:37.866Z,43.35
2019-06-10T07:49:13.485Z,45.44
2019-06-10T07:51:52.342Z,46.25
2019-06-10T07:54:27.721Z,45.65
2019-06-10T07:57:03.420Z,46.36
2019-06-10T07:59:37.388Z,44.96
2019-06-10T08:02:12.404Z,45.25
2019-06-10T08:04:46.763Z,44.10
2019-06-10T08:07:22.418Z,41.97
2019-06-10T08:09:57.317Z,39.91
2019-06-10T08:12:32.529Z,37.92
2019-06-10T08:15:08.633Z,37.19
2019-06-10T08:17:45.678Z,37.04
2019-06-10T08:20:39.090Z,37.99
2019-06-10T08:23:13.412Z,37.09
2019-06-10T08:25:53.368Z,37.21
2019-06-10T08:28:23.400Z,36.63
2019-06-10T08:30:59.277Z,35.71
2019-06-10T08:33:33.387Z,34.61
2019-06-10T08:36:07.717Z,36.17
2019-06-10T08:38:44.909Z,36.24
2019-06-10T08:41:18.041Z,36.36
2019-06-10T08:43:52.887Z,35.94
2019-06-10T08:46:26.881Z,36.88
2019-06-10T08:49:03.187Z,35.38
2019-06-10T08:51:37.686Z,34.88
2019-06-10T08:54:12.804Z,37.88
2019-06-10T08:56:50.348Z,37.31
2019-06-10T08:59:23.084Z,37.39
2019-06-10T09:01:57.381Z,38.30
2019-06-10T09:04:33.110Z,36.63
2019-06-10T09:07:07.377Z,36.56
2019-06-10T09:09:45.790Z,36.15
2019-06-10T09:12:28.656Z,36.74
2019-06-10T09:14:53.371Z,36.92
2019-06-10T09:17:27.637Z,40.35
2019-06-10T09:20:02.898Z,40.59
2019-06-10T09:22:39.826Z,41.32
2019-06-10T09:25:15.009Z,40.53
2019-06-10T09:27:52.480Z,39.78
2019-06-10T09:30:27.804Z,39.59
2019-06-10T09:33:04.140Z,39.36
2019-06-10T09:35:37.979Z,38.73
2019-06-10T09:38:14.057Z,38.70
2019-06-10T09:41:02.907Z,37.93
2019-06-10T09:43:35.486Z,39.28
2019-06-10T09:46:09.426Z,38.89
2019-06-10T09:48:49.638Z,38.13
2019-06-10T09:51:22.993Z,37.91
2019-06-10T09:54:03.166Z,38.03
2019-06-10T09:56:33.181Z,37.74
2019-06-10T09:59:09.169Z,38.04
2019-06-10T10:01:48.300Z,37.81
2019-06-10T10:04:23.553Z,36.88
2019-06-10T10:06:57.589Z,39.58
2019-06-10T10:09:36.759Z,36.89
2019-06-10T10:12:07.825Z,37.78
2019-06-10T10:14:46.078Z,37.23
2019-06-10T10:17:20.146Z,37.07
2019-06-10T10:19:56.904Z,39.00
2019-06-10T10:22:29.753Z,40.79
2019-06-10T10:25:03.638Z,39.74
2019-06-10T10:27:37.525Z,38.82
2019-06-10T10:30:13.519Z,38.07
2019-06-10T10:32:51.062Z,38.25
2019-06-10T10:35:28.726Z,36.59
2019-06-10T10:38:03.862Z,37.18
2019-06-10T10:40:37.678Z,37.28
2019-06-10T10:43:25.391Z,36.96
2019-06-10T10:45:59.250Z,37.75
2019-06-10T10:48:28.711Z,36.41
2019-06-10T10:51:04.306Z,35.33
2019-06-10T10:53:38.656Z,35.86
2019-06-10T10:56:15.975Z,37.79
2019-06-10T10:58:52.038Z,36.74
2019-06-10T11:01:26.182Z,36.16
2019-06-10T11:04:02.793Z,35.38
2019-06-10T11:06:37.203Z,36.52
2019-06-10T11:09:12.978Z,37.71
2019-06-10T11:11:48.922Z,38.44
2019-06-10T11:14:23.212Z,37.07
2019-06-10T11:16:58.798Z,38.73
2019-06-10T11:19:33.054Z,37.36
2019-06-10T11:22:07.960Z,37.99
2019-06-10T11:24:44.894Z,36.14
2019-06-10T11:27:18.323Z,35.25
2019-06-10T11:29:53.549Z,34.96
2019-06-10T11:32:32.798Z,34.68
2019-06-10T11:35:09.363Z,35.27
2019-06-10T11:37:43.055Z,35.60
2019-06-10T11:40:17.299Z,37.45
2019-06-10T11:42:54.219Z,37.33
2019-06-10T11:45:29.140Z,37.58
2019-06-10T11:48:02.864Z,38.46
2019-06-10T11:50:36.721Z,38.90
2019-06-10T11:53:12.757Z,37.83
2019-06-10T11:55:47.624Z,39.43
2019-06-10T11:58:22.846Z,39.24
2019-06-10T12:00:58.543Z,40.69
2019-06-10T12:03:32.060Z,38.48
2019-06-10T12:06:06.164Z,37.99
2019-06-10T12:08:39.857Z,36.60
2019-06-10T12:11:13.759Z,35.13
2019-06-10T12:13:53.747Z,35.60
2019-06-10T12:19:05.233Z,34.98
2019-06-10T12:21:39.031Z,34.60
2019-06-10T12:24:12.956Z,35.50
2019-06-10T12:26:49.807Z,36.47
2019-06-10T12:29:23.664Z,37.06
2019-06-10T12:31:59.984Z,38.59
2019-06-10T12:34:33.429Z,38.21
2019-06-10T12:37:13.018Z,39.05
2019-06-10T12:39:47.349Z,39.63
2019-06-10T12:42:24.632Z,40.31
2019-06-10T12:45:01.413Z,40.81
2019-06-10T12:47:34.903Z,40.11
2019-06-10T12:50:12.035Z,39.16
2019-06-10T12:52:46.519Z,38.76
2019-06-10T12:55:35.571Z,39.18
2019-06-10T12:57:57.869Z,39.11
2019-06-10T13:00:42.208Z,39.28
2019-06-10T13:03:18.028Z,40.22
2019-06-10T13:05:55.772Z,39.90
2019-06-10T13:08:33.872Z,39.73
2019-06-10T13:11:08.355Z,38.92
2019-06-10T13:13:42.678Z,38.94
2019-06-10T13:16:17.061Z,38.13
2019-06-10T13:18:52.523Z,37.85
2019-06-10T13:21:27.798Z,39.11
2019-06-10T13:24:03.687Z,39.25
2019-06-10T13:26:37.228Z,39.77
2019-06-10T13:29:17.454Z,40.03
2019-06-10T13:31:48.010Z,39.11
2019-06-10T13:34:22.194Z,37.75
2019-06-10T13:36:56.729Z,37.30
2019-06-10T13:39:32.517Z,35.45
2019-06-10T13:42:09.944Z,36.10
2019-06-10T13:44:42.814Z,35.85
2019-06-10T13:47:16.512Z,37.22
2019-06-10T13:49:53.285Z,39.17
2019-06-10T13:52:27.165Z,39.29
2019-06-10T13:55:03.580Z,37.91
2019-06-10T13:57:39.110Z,39.35
2019-06-10T14:00:14.604Z,39.55
2019-06-10T14:02:48.708Z,39.55
2019-06-10T14:05:22.677Z,38.50
2019-06-10T14:07:56.653Z,39.50
2019-06-10T14:10:32.507Z,38.47
2019-06-10T14:13:10.557Z,39.24
2019-06-10T14:15:45.496Z,38.95
2019-06-10T14:18:19.424Z,40.01
2019-06-10T14:20:55.059Z,38.43
2019-06-10T14:23:29.026Z,39.58
2019-06-10T14:26:05.926Z,38.76
2019-06-10T14:28:41.756Z,38.03
2019-06-10T14:31:37.175Z,38.84
2019-06-10T14:33:50.233Z,37.22
2019-06-10T14:36:24.142Z,38.67
2019-06-10T14:38:57.944Z,38.25
2019-06-10T14:41:36.975Z,37.79
2019-06-10T14:44:14.240Z,38.05
2019-06-10T14:46:46.870Z,38.48
2019-06-10T14:49:22.280Z,38.25
2019-06-10T14:51:56.010Z,39.28
2019-06-10T14:54:32.102Z,39.70
2019-06-10T14:57:07.317Z,39.00
2019-06-10T14:59:42.613Z,39.35
2019-06-10T15:02:17.461Z,39.28
2019-06-10T15:04:53.228Z,39.66
2019-06-10T15:07:27.319Z,38.95
2019-06-10T15:10:03.301Z,39.94
2019-06-10T15:12:38.981Z,39.30
2019-06-10T15:15:14.302Z,40.86
2019-06-10T15:17:52.277Z,40.65
2019-06-10T15:20:25.094Z,41.64
2019-06-10T15:22:58.995Z,41.42
2019-06-10T15:25:49.197Z,41.66
2019-06-10T15:28:10.694Z,42.29
2019-06-10T15:30:45.450Z,43.52
2019-06-10T15:33:19.725Z,44.13
2019-06-10T15:35:53.799Z,44.46
2019-06-10T15:38:27.684Z,44.46
2019-06-10T15:41:01.563Z,45.05
2019-06-10T15:43:35.526Z,44.40
2019-06-10T15:46:09.906Z,44.90
2019-06-10T15:48:43.816Z,45.76
2019-06-10T15:51:20.986Z,45.90
2019-06-10T15:53:53.085Z,45.28
2019-06-10T15:56:38.697Z,44.74
2019-06-10T15:59:03.092Z,45.21
2019-06-10T16:01:37.113Z,45.01
2019-06-10T16:04:14.080Z,44.74
2019-06-10T16:06:46.412Z,45.53
2019-06-10T16:09:22.590Z,45.17
2019-06-10T16:11:56.446Z,45.75
2019-06-10T16:14:33.258Z,46.52
2019-06-10T16:17:07.076Z,46.51
2019-06-10T16:19:43.069Z,46.43
2019-06-10T16:22:17.576Z,46.34
2019-06-10T16:24:52.902Z,46.38
2019-06-10T16:27:43.559Z,46.88
2019-06-10T16:30:03.867Z,46.37
2019-06-10T16:32:38.181Z,46.13
2019-06-10T16:35:13.105Z,46.13
2019-06-10T16:37:46.998Z,47.70
2019-06-10T16:40:24.286Z,47.76
2019-06-10T16:42:57.973Z,47.67
2019-06-10T16:45:33.958Z,48.76
2019-06-10T16:48:08.220Z,48.81
2019-06-10T16:50:42.643Z,49.96
2019-06-10T16:53:17.942Z,50.73
2019-06-10T16:55:52.908Z,50.83
2019-06-10T16:58:28.417Z,50.79
2019-06-10T17:01:04.339Z,51.06
2019-06-10T17:03:38.506Z,51.13
2019-06-10T17:06:15.636Z,51.13
2019-06-10T17:08:49.547Z,51.51
2019-06-10T17:11:25.793Z,52.01
2019-06-10T17:13:59.464Z,52.72
2019-06-10T17:16:33.235Z,52.93
2019-06-10T17:19:07.068Z,53.58
2019-06-10T17:21:42.210Z,54.05
2019-06-10T17:24:16.291Z,54.54
2019-06-10T17:26:53.192Z,55.38
2019-06-10T17:29:28.553Z,55.45
2019-06-10T17:32:03.737Z,55.57
2019-06-10T17:34:37.941Z,54.63
2019-06-10T17:37:15.033Z,54.16
2019-06-10T17:39:49.975Z,54.41
2019-06-10T17:42:30.600Z,55.15
2019-06-10T17:45:03.432Z,55.11
2019-06-10T17:47:37.223Z,54.88
2019-06-10T17:50:12.677Z,54.73
2019-06-10T17:52:46.672Z,54.91
2019-06-10T17:55:23.329Z,54.95
2019-06-10T17:57:56.154Z,55.49
2019-06-10T18:00:31.697Z,55.84
2019-06-10T18:03:07.098Z,56.11
2019-06-10T18:05:43.217Z,56.20
2019-06-10T18:08:17.249Z,56.43
2019-06-10T18:10:53.693Z,56.89
2019-06-10T18:13:28.088Z,57.49
2019-06-10T18:16:02.880Z,57.16
2019-06-10T18:18:37.333Z,57.33
2019-06-10T18:21:15.935Z,57.62
2019-06-10T18:23:52.987Z,57.35
2019-06-10T18:26:28.946Z,57.07
2019-06-10T18:29:08.150Z,57.09
2019-06-10T18:31:38.523Z,57.45
2019-06-10T18:34:13.123Z,58.62
2019-06-10T18:36:49.158Z,59.59
2019-06-10T18:39:24.037Z,63.62
2019-06-10T18:42:03.398Z,65.91
2019-06-10T18:44:37.558Z,72.61
2019-06-10T18:47:13.412Z,74.22
2019-06-10T18:49:49.893Z,73.99
2019-06-10T18:52:23.809Z,74.91
2019-06-10T18:54:58.115Z,76.38
2019-06-10T18:57:36.174Z,76.84
2019-06-10T19:00:14.466Z,76.60
2019-06-10T19:02:47.629Z,77.09
2019-06-10T19:05:23.564Z,77.48
2019-06-10T19:07:58.413Z,75.90
2019-06-10T19:10:35.302Z,75.01
2019-06-10T19:13:08.667Z,78.89
2019-06-10T19:15:43.613Z,80.69
2019-06-10T19:18:23.654Z,77.33
2019-06-10T19:20:57.845Z,77.65
2019-06-10T19:23:34.500Z,77.43
2019-06-10T19:26:08.041Z,77.28
2019-06-10T19:28:45.250Z,79.24
2019-06-10T19:31:19.581Z,80.00
2019-06-10T19:33:55.618Z,78.82
2019-06-10T19:36:31.413Z,80.12
2019-06-10T19:39:07.945Z,80.72
2019-06-10T19:41:47.054Z,81.05
2019-06-10T19:44:23.420Z,80.15
2019-06-10T19:46:59.117Z,82.11
2019-06-10T19:49:34.182Z,83.11
2019-06-10T19:52:08.529Z,82.01
2019-06-10T19:54:45.399Z,81.46
2019-06-10T19:57:21.909Z,83.81
2019-06-10T20:00:08.559Z,85.15
2019-06-10T20:02:33.003Z,84.77
2019-06-10T20:05:09.221Z,85.97
2019-06-10T20:07:48.462Z,86.70
2019-06-10T20:10:23.047Z,86.98
2019-06-10T20:12:58.826Z,87.91
2019-06-10T20:15:32.923Z,87.14
2019-06-10T20:18:06.840Z,85.72
2019-06-10T20:20:45.640Z,85.88
2019-06-10T20:23:17.887Z,84.97
2019-06-10T20:25:52.914Z,83.43
2019-06-10T20:28:31.988Z,80.96
2019-06-10T20:31:05.285Z,81.49
2019-06-10T20:33:42.907Z,81.40
2019-06-10T20:36:22.457Z,82.21
2019-06-10T20:38:55.358Z,82.77
2019-06-10T20:41:29.371Z,83.19
2019-06-10T20:44:05.041Z,82.29
2019-06-10T20:46:41.010Z,81.81
2019-06-10T20:49:16.183Z,81.71
2019-06-10T20:52:07.113Z,80.39
2019-06-10T20:54:26.877Z,80.09
2019-06-10T20:57:00.940Z,81.04
2019-06-10T20:59:35.455Z,83.04
2019-06-10T21:02:09.642Z,83.58
2019-06-10T21:04:44.065Z,84.56
2019-06-10T21:07:23.184Z,84.28
2019-06-10T21:10:02.789Z,84.04
2019-06-10T21:12:37.286Z,84.91
2019-06-10T21:15:12.589Z,84.97
2019-06-10T21:17:48.059Z,85.75
2019-06-10T21:20:22.512Z,85.17
2019-06-10T21:22:58.299Z,86.16
2019-06-10T21:25:32.637Z,87.22
2019-06-10T21:28:06.705Z,87.99
2019-06-10T21:30:45.932Z,87.69
2019-06-10T21:33:16.043Z,86.13
2019-06-10T21:35:51.201Z,86.47
2019-06-10T21:38:25.452Z,86.85
2019-06-10T21:40:59.156Z,87.27
2019-06-10T21:43:34.430Z,87.59
2019-06-10T21:46:08.076Z,88.34
2019-06-10T21:48:43.826Z,88.09
2019-06-10T21:51:17.378Z,88.62
2019-06-10T21:53:54.737Z,88.91
2019-06-10T21:56:28.183Z,88.64
2019-06-10T21:59:03.293Z,89.44
2019-06-10T22:01:37.511Z,89.48
2019-06-10T22:04:13.345Z,89.41
2019-06-10T22:06:47.460Z,89.27
2019-06-10T22:09:21.536Z,88.85
2019-06-10T22:11:55.991Z,88.93
2019-06-10T22:14:29.964Z,89.08
2019-06-10T22:17:03.620Z,89.51
2019-06-10T22:19:37.636Z,89.69
2019-06-10T22:22:12.983Z,90.05
2019-06-10T22:24:47.102Z,89.78
2019-06-10T22:27:22.320Z,89.92
2019-06-10T22:29:57.216Z,89.92
2019-06-10T22:32:32.367Z,90.10
2019-06-10T22:35:08.164Z,89.79
2019-06-10T22:37:42.620Z,89.37
2019-06-10T22:40:17.881Z,89.21
2019-06-10T22:43:17.551Z,88.85
2019-06-10T22:45:53.644Z,89.36
2019-06-10T22:48:27.948Z,90.85
2019-06-10T22:51:01.771Z,91.55
2019-06-10T22:53:35.672Z,92.44
2019-06-10T22:56:12.307Z,93.50
2019-06-10T22:58:47.663Z,92.83
2019-06-10T23:01:31.714Z,92.49
2019-06-10T23:03:57.585Z,92.37
2019-06-10T23:06:33.760Z,91.61
2019-06-10T23:09:07.724Z,90.90
2019-06-10T23:11:42.395Z,90.56
2019-06-10T23:14:16.194Z,90.37
2019-06-10T23:16:51.455Z,90.70
2019-06-10T23:19:27.345Z,88.77
2019-06-10T23:22:02.952Z,88.36
2019-06-10T23:24:36.419Z,88.70
2019-06-10T23:27:12.971Z,88.51
2019-06-10T23:29:45.964Z,89.42
2019-06-10T23:32:22.086Z,88.72
2019-06-10T23:34:58.177Z,88.17
2019-06-10T23:37:32.233Z,88.31
2019-06-10T23:40:08.142Z,88.23
2019-06-10T23:42:43.658Z,87.59
2019-06-10T23:45:18.860Z,87.17
2019-06-10T23:47:59.548Z,87.85
2019-06-10T23:50:40.741Z,88.20
2019-06-10T23:53:14.490Z,87.52
2019-06-10T23:55:48.671Z,87.16
2019-06-10T23:58:25.090Z,86.90
